Time,TemperatureF,DewpointF,PressureIn,WindDirection,WindDirectionDegrees,WindSpeedMPH,WindSpeedGustMPH,Humidity,HourlyPrecipIn,Conditions,Clouds,dailyrainin,SoftwareType,DateUTC
2013-04-13 00:13:00,36.5,36.0,29.82,NNE,26,0.0,0.0,99,0.01,,,0.00,weatherlink.com 1.10,2013-04-13 04:13:00,
2013-04-13 00:28:00,36.6,36.0,29.82,NNE,26,0.0,0.0,99,0.01,,,0.00,weatherlink.com 1.10,2013-04-13 04:28:00,
2013-04-13 00:43:00,36.6,36.0,29.84,NNE,26,0.0,0.0,99,0.00,,,0.00,weatherlink.com 1.10,2013-04-13 04:43:00,
2013-04-13 00:58:00,36.6,36.0,29.82,NNE,26,0.0,0.0,99,0.00,,,0.00,weatherlink.com 1.10,2013-04-13 04:58:00,
2013-04-13 01:13:00,36.6,36.0,29.83,NNE,26,0.0,0.0,99,0.00,,,0.00,weatherlink.com 1.10,2013-04-13 05:13:00,
2013-04-13 01:28:00,36.5,36.0,29.82,NNE,26,0.0,0.0,99,0.00,,,0.00,weatherlink.com 1.10,2013-04-13 05:28:00,
2013-04-13 01:43:00,36.6,36.0,29.83,WNW,287,0.0,0.0,99,0.00,,,0.00,weatherlink.com 1.10,2013-04-13 05:43:00,
2013-04-13 01:59:00,36.6,36.0,29.82,WNW,287,0.0,0.0,99,0.00,,,0.00,weatherlink.com 1.10,2013-04-13 05:59:00,
2013-04-13 02:14:00,36.5,36.0,29.82,WNW,288,0.0,0.0,99,0.00,,,0.00,weatherlink.com 1.10,2013-04-13 06:14:00,
2013-04-13 02:44:00,36.5,36.0,29.82,WNW,287,0.0,0.0,99,0.00,,,0.00,weatherlink.com 1.10,2013-04-13 06:44:00,
2013-04-13 02:59:00,36.6,36.0,29.83,WNW,291,0.0,0.0,99,0.00,,,0.00,weatherlink.com 1.10,2013-04-13 06:59:00,
2013-04-13 03:14:00,36.6,36.0,29.83,WNW,291,0.0,0.0,99,0.00,,,0.00,weatherlink.com 1.10,2013-04-13 07:14:00,
2013-04-13 03:29:00,36.5,36.0,29.82,WNW,291,0.0,0.0,99,0.00,,,0.00,weatherlink.com 1.10,2013-04-13 07:29:00,
2013-04-13 03:44:00,36.3,36.0,29.81,WNW,291,0.0,0.0,99,0.00,,,0.00,weatherlink.com 1.10,2013-04-13 07:44:00,
2013-04-13 03:59:00,36.4,36.0,29.81,WSW,240,0.0,0.0,99,0.00,,,0.00,weatherlink.com 1.10,2013-04-13 07:59:00,
2013-04-13 04:29:00,36.3,36.0,29.81,WSW,240,0.0,0.0,99,0.00,,,0.00,weatherlink.com 1.10,2013-04-13 08:29:00,
2013-04-13 04:44:00,36.3,36.0,29.81,WSW,241,0.0,0.0,99,0.00,,,0.00,weatherlink.com 1.10,2013-04-13 08:44:00,
2013-04-13 04:59:00,36.3,36.0,29.82,WSW,240,0.0,0.0,99,0.00,,,0.00,weatherlink.com 1.10,2013-04-13 08:59:00,
2013-04-13 05:14:00,36.4,36.0,29.81,WSW,240,0.0,0.0,99,0.00,,,0.00,weatherlink.com 1.10,2013-04-13 09:14:00,
2013-04-13 05:29:00,36.5,36.0,29.81,WSW,241,0.0,0.0,99,0.00,,,0.00,weatherlink.com 1.10,2013-04-13 09:29:00,
2013-04-13 05:59:00,36.7,37.0,29.82,WSW,240,0.0,0.0,99,0.00,,,0.00,weatherlink.com 1.10,2013-04-13 09:59:00,
2013-04-13 06:14:00,36.7,37.0,29.82,WSW,240,0.0,0.0,99,0.00,,,0.00,weatherlink.com 1.10,2013-04-13 10:14:00,
2013-04-13 06:29:00,36.8,37.0,29.82,West,274,0.0,0.0,99,0.00,,,0.00,weatherlink.com 1.10,2013-04-13 10:29:00,
2013-04-13 06:59:00,37.0,37.0,29.83,West,263,0.0,0.0,99,0.00,,,0.00,weatherlink.com 1.10,2013-04-13 10:59:00,
2013-04-13 07:14:00,37.2,37.0,29.83,West,263,0.0,0.0,99,0.00,,,0.00,weatherlink.com 1.10,2013-04-13 11:14:00,
2013-04-13 07:44:00,37.6,37.0,29.84,West,262,0.0,0.0,99,0.00,,,0.00,weatherlink.com 1.10,2013-04-13 11:44:00,
2013-04-13 08:14:00,38.0,38.0,29.84,West,263,0.0,0.0,99,0.00,,,0.00,weatherlink.com 1.10,2013-04-13 12:14:00,
2013-04-13 08:29:00,38.0,38.0,29.84,West,263,0.0,0.0,99,0.00,,,0.00,weatherlink.com 1.10,2013-04-13 12:29:00,
2013-04-13 09:14:00,39.4,39.0,29.84,West,266,0.0,0.0,99,0.00,,,0.00,weatherlink.com 1.10,2013-04-13 13:14:00,
2013-04-13 09:44:00,40.3,40.0,29.84,SW,217,0.0,0.0,99,0.00,,,0.00,weatherlink.com 1.10,2013-04-13 13:44:00,
2013-04-13 09:59:00,41.1,41.0,29.85,West,273,0.0,0.0,99,0.00,,,0.00,weatherlink.com 1.10,2013-04-13 13:59:00,
2013-04-13 10:14:00,41.9,41.0,29.85,WNW,283,0.0,0.0,98,0.00,,,0.00,weatherlink.com 1.10,2013-04-13 14:14:00,
2013-04-13 10:29:00,42.3,41.0,29.85,West,266,0.0,0.0,96,0.00,,,0.00,weatherlink.com 1.10,2013-04-13 14:29:00,
2013-04-13 10:44:00,43.0,42.0,29.86,SW,222,0.0,0.0,96,0.00,,,0.00,weatherlink.com 1.10,2013-04-13 14:44:00,
2013-04-13 10:59:00,43.8,42.0,29.85,SE,139,0.0,1.0,94,0.00,,,0.00,weatherlink.com 1.10,2013-04-13 14:59:00,
2013-04-13 11:14:00,45.6,43.0,29.86,ESE,111,0.0,2.0,91,0.00,,,0.00,weatherlink.com 1.10,2013-04-13 15:14:00,
2013-04-13 11:30:00,46.6,43.0,29.85,ENE,72,0.0,2.0,87,0.00,,,0.00,weatherlink.com 1.10,2013-04-13 15:30:00,
2013-04-13 11:45:00,46.9,42.0,29.86,NNW,345,0.0,3.0,82,0.00,,,0.00,weatherlink.com 1.10,2013-04-13 15:45:00,
2013-04-13 12:00:00,47.3,41.0,29.85,WNW,293,1.0,5.0,78,0.00,,,0.00,weatherlink.com 1.10,2013-04-13 16:00:00,
2013-04-13 12:15:00,48.2,41.0,29.85,WSW,258,3.0,4.0,76,0.00,,,0.00,weatherlink.com 1.10,2013-04-13 16:15:00,
2013-04-13 12:30:00,49.0,41.0,29.84,West,271,0.0,2.0,73,0.00,,,0.00,weatherlink.com 1.10,2013-04-13 16:30:00,
2013-04-13 12:45:00,48.1,41.0,29.84,WNW,294,0.0,4.0,75,0.00,,,0.00,weatherlink.com 1.10,2013-04-13 16:45:00,
2013-04-13 13:00:00,48.2,41.0,29.83,ENE,69,0.0,0.0,75,0.00,,,0.00,weatherlink.com 1.10,2013-04-13 17:00:00,
2013-04-13 13:30:00,48.1,41.0,29.83,West,276,0.0,1.0,75,0.00,,,0.00,weatherlink.com 1.10,2013-04-13 17:30:00,
2013-04-13 13:45:00,48.6,40.0,29.84,SE,129,0.0,1.0,73,0.00,,,0.00,weatherlink.com 1.10,2013-04-13 17:45:00,
2013-04-13 14:00:00,49.0,41.0,29.83,NNE,18,0.0,0.0,73,0.00,,,0.00,weatherlink.com 1.10,2013-04-13 18:00:00,
2013-04-13 14:15:00,49.6,41.0,29.83,WNW,295,0.0,6.0,73,0.00,,,0.00,weatherlink.com 1.10,2013-04-13 18:15:00,
2013-04-13 14:30:00,51.0,41.0,29.82,NNW,345,1.0,2.0,68,0.00,,,0.00,weatherlink.com 1.10,2013-04-13 18:30:00,
2013-04-13 14:45:00,51.0,40.0,29.82,WNW,283,2.0,5.0,66,0.00,,,0.00,weatherlink.com 1.10,2013-04-13 18:45:00,
2013-04-13 15:00:00,50.8,39.0,29.82,WSW,256,0.0,4.0,65,0.00,,,0.00,weatherlink.com 1.10,2013-04-13 19:00:00,
2013-04-13 15:15:00,50.5,40.0,29.81,West,269,0.0,1.0,68,0.00,,,0.00,weatherlink.com 1.10,2013-04-13 19:15:00,
2013-04-13 15:30:00,50.3,40.0,29.81,WNW,288,0.0,2.0,67,0.00,,,0.00,weatherlink.com 1.10,2013-04-13 19:30:00,
2013-04-13 15:45:00,50.4,39.0,29.81,North,354,0.0,1.0,66,0.00,,,0.00,weatherlink.com 1.10,2013-04-13 19:45:00,
2013-04-13 16:00:00,50.4,41.0,29.81,North,6,0.0,0.0,69,0.00,,,0.00,weatherlink.com 1.10,2013-04-13 20:00:00,
2013-04-13 16:15:00,50.0,39.0,29.82,NNW,330,0.0,0.0,65,0.00,,,0.00,weatherlink.com 1.10,2013-04-13 20:15:00,
2013-04-13 16:30:00,49.6,39.0,29.82,NNW,342,0.0,0.0,68,0.00,,,0.00,weatherlink.com 1.10,2013-04-13 20:30:00,
2013-04-13 16:45:00,49.4,40.0,29.83,NW,319,0.0,0.0,70,0.00,,,0.00,weatherlink.com 1.10,2013-04-13 20:45:00,
2013-04-13 17:00:00,49.1,40.0,29.83,NW,315,0.0,0.0,72,0.00,,,0.00,weatherlink.com 1.10,2013-04-13 21:00:00,
2013-04-13 17:15:00,48.8,40.0,29.83,NW,315,0.0,0.0,73,0.00,,,0.00,weatherlink.com 1.10,2013-04-13 21:15:00,
2013-04-13 17:30:00,48.7,40.0,29.84,NW,314,0.0,0.0,72,0.00,,,0.00,weatherlink.com 1.10,2013-04-13 21:30:00,
2013-04-13 17:45:00,48.3,41.0,29.83,NW,314,0.0,0.0,76,0.00,,,0.00,weatherlink.com 1.10,2013-04-13 21:45:00,
2013-04-13 18:00:00,48.3,41.0,29.84,WNW,283,0.0,0.0,76,0.00,,,0.00,weatherlink.com 1.10,2013-04-13 22:00:00,
2013-04-13 18:15:00,48.2,41.0,29.85,WNW,286,0.0,0.0,75,0.00,,,0.00,weatherlink.com 1.10,2013-04-13 22:15:00,
2013-04-13 18:30:00,47.9,41.0,29.86,WNW,286,0.0,0.0,77,0.00,,,0.00,weatherlink.com 1.10,2013-04-13 22:30:00,
2013-04-13 18:45:00,47.7,41.0,29.86,WNW,287,0.0,0.0,78,0.00,,,0.00,weatherlink.com 1.10,2013-04-13 22:45:00,
2013-04-13 19:00:00,47.4,41.0,29.86,WNW,286,0.0,0.0,78,0.00,,,0.00,weatherlink.com 1.10,2013-04-13 23:00:00,
2013-04-13 19:15:00,46.9,41.0,29.87,ESE,119,5.0,5.0,79,0.00,,,0.00,weatherlink.com 1.10,2013-04-13 23:15:00,
2013-04-13 19:30:00,43.5,40.0,29.90,NW,316,5.0,13.0,86,0.04,,,0.04,weatherlink.com 1.10,2013-04-13 23:30:00,
2013-04-13 19:45:00,42.3,38.0,29.91,WNW,284,1.0,7.0,86,0.04,,,0.04,weatherlink.com 1.10,2013-04-13 23:45:00,
2013-04-13 20:00:00,42.0,38.0,29.91,WNW,288,2.0,8.0,87,0.04,,,0.04,weatherlink.com 1.10,2013-04-14 00:00:00,
2013-04-13 20:15:00,42.0,38.0,29.91,WNW,283,0.0,6.0,87,0.04,,,0.04,weatherlink.com 1.10,2013-04-14 00:15:00,
2013-04-13 20:30:00,41.9,38.0,29.92,WSW,257,2.0,2.0,87,0.00,,,0.04,weatherlink.com 1.10,2013-04-14 00:30:00,
2013-04-13 20:45:00,41.7,38.0,29.92,SW,221,0.0,1.0,88,0.00,,,0.04,weatherlink.com 1.10,2013-04-14 00:45:00,
2013-04-13 21:00:00,41.3,38.0,29.93,West,264,0.0,1.0,89,0.00,,,0.04,weatherlink.com 1.10,2013-04-14 01:00:00,
2013-04-13 21:15:00,40.9,39.0,29.93,SW,231,0.0,0.0,91,0.00,,,0.04,weatherlink.com 1.10,2013-04-14 01:15:00,
2013-04-13 21:30:00,40.6,38.0,29.93,SW,232,0.0,0.0,91,0.00,,,0.04,weatherlink.com 1.10,2013-04-14 01:30:00,
2013-04-13 21:45:00,40.2,38.0,29.93,SW,225,0.0,0.0,92,0.00,,,0.04,weatherlink.com 1.10,2013-04-14 01:45:00,
2013-04-13 22:00:00,39.8,38.0,29.92,SW,225,0.0,0.0,93,0.00,,,0.04,weatherlink.com 1.10,2013-04-14 02:00:00,
2013-04-13 22:15:00,39.4,38.0,29.92,SW,225,0.0,0.0,94,0.00,,,0.04,weatherlink.com 1.10,2013-04-14 02:15:00,
2013-04-13 22:30:00,39.0,38.0,29.92,SW,225,0.0,0.0,95,0.00,,,0.04,weatherlink.com 1.10,2013-04-14 02:30:00,
2013-04-13 22:45:00,38.8,38.0,29.93,SW,225,0.0,0.0,95,0.00,,,0.04,weatherlink.com 1.10,2013-04-14 02:45:00,
2013-04-13 23:00:00,38.9,38.0,29.93,SW,225,0.0,0.0,96,0.00,,,0.04,weatherlink.com 1.10,2013-04-14 03:00:00,
2013-04-13 23:15:00,38.6,38.0,29.93,SW,225,0.0,-999.0,96,-99.99,,,0.04,weatherlink.com 1.10,2013-04-14 03:15:00,
2013-04-13 23:30:00,38.6,38.0,29.93,SW,225,0.0,0.0,96,0.00,,,0.04,weatherlink.com 1.10,2013-04-14 03:30:00,
2013-04-13 23:45:00,38.9,38.0,29.93,West,268,0.0,0.0,97,0.01,,,0.05,weatherlink.com 1.10,2013-04-14 03:45:00,